Terminal Aerodrome Forecast
Issued by NWS Sioux Falls, SD

Home | Current Version | Previous Version | Text Only | Print | Product List | Glossary Off
Versions: 1 2 3 4 5 6 7 8 9 10 11 12 13 14 15 16 17 18 19 20 21 22 23 24 25 26 27 28 29 30 31 32 33 34 35 36 37 38

372
FTUS43 KFSD 280520
TAFSUX
TAF
KSUX 280520Z 2806/2906 VRB04KT P6SM SHRA OVC045
      TEMPO 2806/2810 4SM TS OVC025CB
     FM281000 VRB04KT P6SM SHRA VCTS OVC025CB
     FM281800 18006KT P6SM BKN035
     FM282200 31007KT P6SM BKN045
     FM290300 29005KT P6SM SKC=

USA.gov is the U.S. government's official web portal to all federal, state and local government web resources and services.